sensor_id;sensor_type;location;lat;lon;timestamp;pressure;altitude;pressure_sealevel;temperature;humidity
60583;BME280;46415;47.536;19.066;2024-03-07T00:00:54;-18460.41;;;8.49;100.00
60583;BME280;46415;47.536;19.066;2024-03-07T00:03:57;-18460.69;;;8.50;100.00
60583;BME280;46415;47.536;19.066;2024-03-07T00:07:00;-18458.75;;;8.43;100.00
60583;BME280;46415;47.536;19.066;2024-03-07T00:10:03;-18458.75;;;8.43;100.00
60583;BME280;46415;47.536;19.066;2024-03-07T00:13:10;-18456.97;;;8.37;100.00
60583;BME280;46415;47.536;19.066;2024-03-07T00:16:13;-18455.19;;;8.30;100.00
60583;BME280;46415;47.536;19.066;2024-03-07T00:19:15;-18455.47;;;8.31;100.00
60583;BME280;46415;47.536;19.066;2024-03-07T00:22:18;-18455.19;;;8.30;100.00
60583;BME280;46415;47.536;19.066;2024-03-07T00:25:21;-18454.91;;;8.29;100.00
60583;BME280;46415;47.536;19.066;2024-03-07T00:28:25;-18453.53;;;8.24;100.00
60583;BME280;46415;47.536;19.066;2024-03-07T00:31:31;-18452.84;;;8.22;100.00
60583;BME280;46415;47.536;19.066;2024-03-07T00:34:34;-18453.00;;;8.22;100.00
60583;BME280;46415;47.536;19.066;2024-03-07T00:37:37;-18452.44;;;8.20;100.00
60583;BME280;46415;47.536;19.066;2024-03-07T00:40:40;-18452.03;;;8.18;100.00
60583;BME280;46415;47.536;19.066;2024-03-07T00:43:43;-18452.44;;;8.20;100.00
60583;BME280;46415;47.536;19.066;2024-03-07T00:46:46;-18451.34;;;8.16;100.00
60583;BME280;46415;47.536;19.066;2024-03-07T00:49:49;-18450.66;;;8.13;100.00
60583;BME280;46415;47.536;19.066;2024-03-07T00:52:52;-18450.78;;;8.14;100.00
60583;BME280;46415;47.536;19.066;2024-03-07T00:55:55;-18449.16;;;8.08;100.00
60583;BME280;46415;47.536;19.066;2024-03-07T00:58:58;-18450.25;;;8.12;100.00
60583;BME280;46415;47.536;19.066;2024-03-07T01:02:01;-18450.09;;;8.11;100.00
60583;BME280;46415;47.536;19.066;2024-03-07T01:05:05;-18449.97;;;8.11;100.00
60583;BME280;46415;47.536;19.066;2024-03-07T01:08:12;-18449.16;;;8.08;100.00
60583;BME280;46415;47.536;19.066;2024-03-07T01:11:15;-18449.56;;;8.09;100.00
60583;BME280;46415;47.536;19.066;2024-03-07T01:14:18;-18448.31;;;8.05;100.00
60583;BME280;46415;47.536;19.066;2024-03-07T01:17:21;-18448.31;;;8.05;100.00
60583;BME280;46415;47.536;19.066;2024-03-07T01:20:24;-18447.63;;;8.02;100.00
60583;BME280;46415;47.536;19.066;2024-03-07T01:23:28;-18447.50;;;8.02;100.00
60583;BME280;46415;47.536;19.066;2024-03-07T01:26:31;-18447.63;;;8.02;100.00
60583;BME280;46415;47.536;19.066;2024-03-07T01:29:36;-18447.63;;;8.02;100.00
60583;BME280;46415;47.536;19.066;2024-03-07T01:32:38;-18447.09;;;8.00;100.00
60583;BME280;46415;47.536;19.066;2024-03-07T01:35:42;-18446.81;;;7.99;100.00
60583;BME280;46415;47.536;19.066;2024-03-07T01:38:45;-18446.13;;;7.97;100.00
60583;BME280;46415;47.536;19.066;2024-03-07T01:41:48;-18445.31;;;7.94;100.00
60583;BME280;46415;47.536;19.066;2024-03-07T01:44:51;-18445.03;;;7.93;100.00
60583;BME280;46415;47.536;19.066;2024-03-07T01:47:54;-18444.75;;;7.92;100.00
60583;BME280;46415;47.536;19.066;2024-03-07T01:51:00;-18445.03;;;7.93;100.00
60583;BME280;46415;47.536;19.066;2024-03-07T01:54:08;-18444.47;;;7.91;100.00
60583;BME280;46415;47.536;19.066;2024-03-07T01:57:12;-18442.44;;;7.83;100.00
60583;BME280;46415;47.536;19.066;2024-03-07T02:00:16;-18441.47;;;7.79;100.00
60583;BME280;46415;47.536;19.066;2024-03-07T02:03:20;-18440.50;;;7.76;100.00
60583;BME280;46415;47.536;19.066;2024-03-07T02:06:23;-18438.59;;;7.69;100.00
60583;BME280;46415;47.536;19.066;2024-03-07T02:09:26;-18438.03;;;7.67;100.00
60583;BME280;46415;47.536;19.066;2024-03-07T02:12:30;-18436.38;;;7.61;100.00
60583;BME280;46415;47.536;19.066;2024-03-07T02:15:33;-18437.34;;;7.64;100.00
60583;BME280;46415;47.536;19.066;2024-03-07T02:18:37;-18436.53;;;7.61;100.00
60583;BME280;46415;47.536;19.066;2024-03-07T02:21:41;-18434.47;;;7.54;100.00
60583;BME280;46415;47.536;19.066;2024-03-07T02:24:44;-18434.31;;;7.53;100.00
60583;BME280;46415;47.536;19.066;2024-03-07T02:27:48;-18433.09;;;7.49;100.00
60583;BME280;46415;47.536;19.066;2024-03-07T02:30:51;-18433.22;;;7.49;100.00
60583;BME280;46415;47.536;19.066;2024-03-07T02:33:54;-18431.59;;;7.43;100.00
60583;BME280;46415;47.536;19.066;2024-03-07T02:36:56;-18428.56;;;7.32;100.00
60583;BME280;46415;47.536;19.066;2024-03-07T02:40:00;-18426.37;;;7.24;100.00
60583;BME280;46415;47.536;19.066;2024-03-07T02:43:03;-18426.91;;;7.26;100.00
60583;BME280;46415;47.536;19.066;2024-03-07T02:46:08;-18426.91;;;7.26;100.00
60583;BME280;46415;47.536;19.066;2024-03-07T02:49:10;-18425.00;;;7.19;100.00
60583;BME280;46415;47.536;19.066;2024-03-07T02:52:13;-18424.59;;;7.17;100.00
60583;BME280;46415;47.536;19.066;2024-03-07T02:55:16;-18424.31;;;7.16;100.00
60583;BME280;46415;47.536;19.066;2024-03-07T02:58:19;-18427.19;;;7.27;100.00
60583;BME280;46415;47.536;19.066;2024-03-07T03:01:22;-18425.28;;;7.20;100.00
60583;BME280;46415;47.536;19.066;2024-03-07T03:04:25;-18425.13;;;7.19;100.00
60583;BME280;46415;47.536;19.066;2024-03-07T03:07:27;-18424.72;;;7.18;100.00
60583;BME280;46415;47.536;19.066;2024-03-07T03:10:30;-18425.41;;;7.20;100.00
60583;BME280;46415;47.536;19.066;2024-03-07T03:13:34;-18425.28;;;7.20;100.00
60583;BME280;46415;47.536;19.066;2024-03-07T03:16:41;-18425.28;;;7.20;100.00
60583;BME280;46415;47.536;19.066;2024-03-07T03:19:50;-18427.31;;;7.27;100.00
60583;BME280;46415;47.536;19.066;2024-03-07T03:22:54;-18427.06;;;7.26;100.00
60583;BME280;46415;47.536;19.066;2024-03-07T03:26:00;-18425.00;;;7.19;100.00
60583;BME280;46415;47.536;19.066;2024-03-07T03:29:03;-18424.72;;;7.18;100.00
60583;BME280;46415;47.536;19.066;2024-03-07T03:32:06;-18423.63;;;7.14;100.00
60583;BME280;46415;47.536;19.066;2024-03-07T03:35:10;-18424.03;;;7.15;100.00
60583;BME280;46415;47.536;19.066;2024-03-07T03:38:15;-18423.63;;;7.14;100.00
60583;BME280;46415;47.536;19.066;2024-03-07T03:41:21;-18422.38;;;7.09;100.00
60583;BME280;46415;47.536;19.066;2024-03-07T03:44:23;-18422.78;;;7.11;100.00
60583;BME280;46415;47.536;19.066;2024-03-07T03:47:26;-18425.81;;;7.22;100.00
60583;BME280;46415;47.536;19.066;2024-03-07T03:50:31;-18424.72;;;7.18;100.00
60583;BME280;46415;47.536;19.066;2024-03-07T03:53:35;-18422.38;;;7.09;100.00
60583;BME280;46415;47.536;19.066;2024-03-07T03:56:39;-18421.00;;;7.04;100.00
60583;BME280;46415;47.536;19.066;2024-03-07T03:59:43;-18421.84;;;7.07;100.00
60583;BME280;46415;47.536;19.066;2024-03-07T04:02:47;-18420.47;;;7.02;100.00
60583;BME280;46415;47.536;19.066;2024-03-07T04:05:51;-18417.03;;;6.89;100.00
60583;BME280;46415;47.536;19.066;2024-03-07T04:08:54;-18415.38;;;6.83;100.00
60583;BME280;46415;47.536;19.066;2024-03-07T04:11:58;-18413.75;;;6.77;100.00
60583;BME280;46415;47.536;19.066;2024-03-07T04:15:02;-18414.28;;;6.79;100.00
60583;BME280;46415;47.536;19.066;2024-03-07T04:18:06;-18414.56;;;6.80;100.00
60583;BME280;46415;47.536;19.066;2024-03-07T04:21:10;-18413.31;;;6.76;100.00
60583;BME280;46415;47.536;19.066;2024-03-07T04:24:13;-18414.56;;;6.80;100.00
60583;BME280;46415;47.536;19.066;2024-03-07T04:27:16;-18413.19;;;6.75;100.00
60583;BME280;46415;47.536;19.066;2024-03-07T04:30:19;-18412.38;;;6.72;100.00
60583;BME280;46415;47.536;19.066;2024-03-07T04:33:22;-18411.00;;;6.67;100.00
60583;BME280;46415;47.536;19.066;2024-03-07T04:36:26;-18410.16;;;6.64;100.00
60583;BME280;46415;47.536;19.066;2024-03-07T04:39:29;-18408.78;;;6.59;100.00
60583;BME280;46415;47.536;19.066;2024-03-07T04:42:38;-18407.69;;;6.55;100.00
60583;BME280;46415;47.536;19.066;2024-03-07T04:45:41;-18407.41;;;6.54;100.00
60583;BME280;46415;47.536;19.066;2024-03-07T04:48:45;-18407.56;;;6.54;100.00
60583;BME280;46415;47.536;19.066;2024-03-07T04:51:47;-18407.97;;;6.56;100.00
60583;BME280;46415;47.536;19.066;2024-03-07T04:54:50;-18406.47;;;6.50;100.00
60583;BME280;46415;47.536;19.066;2024-03-07T04:57:53;-18404.41;;;6.43;100.00
60583;BME280;46415;47.536;19.066;2024-03-07T05:00:56;-18404.66;;;6.44;100.00
60583;BME280;46415;47.536;19.066;2024-03-07T05:03:59;-18404.81;;;6.44;100.00
60583;BME280;46415;47.536;19.066;2024-03-07T05:07:03;-18405.22;;;6.46;100.00
60583;BME280;46415;47.536;19.066;2024-03-07T05:10:07;-18403.72;;;6.40;100.00
60583;BME280;46415;47.536;19.066;2024-03-07T05:13:11;-18404.94;;;6.45;100.00
60583;BME280;46415;47.536;19.066;2024-03-07T05:16:13;-18403.56;;;6.40;100.00
60583;BME280;46415;47.536;19.066;2024-03-07T05:19:16;-18402.19;;;6.35;100.00
60583;BME280;46415;47.536;19.066;2024-03-07T05:22:21;-18402.19;;;6.35;100.00
60583;BME280;46415;47.536;19.066;2024-03-07T05:25:28;-18401.94;;;6.34;100.00
60583;BME280;46415;47.536;19.066;2024-03-07T05:28:31;-18403.56;;;6.40;100.00
60583;BME280;46415;47.536;19.066;2024-03-07T05:31:35;-18407.16;;;6.53;100.00
60583;BME280;46415;47.536;19.066;2024-03-07T05:34:38;-18411.00;;;6.67;100.00
60583;BME280;46415;47.536;19.066;2024-03-07T05:37:43;-18413.31;;;6.76;100.00
60583;BME280;46415;47.536;19.066;2024-03-07T05:40:49;-18417.31;;;6.90;100.00
60583;BME280;46415;47.536;19.066;2024-03-07T05:43:53;-18416.47;;;6.87;100.00
60583;BME280;46415;47.536;19.066;2024-03-07T05:46:55;-18417.84;;;6.92;100.00
60583;BME280;46415;47.536;19.066;2024-03-07T05:49:58;-18421.97;;;7.08;100.00
60583;BME280;46415;47.536;19.066;2024-03-07T05:53:01;-18424.16;;;7.16;100.00
60583;BME280;46415;47.536;19.066;2024-03-07T05:56:04;-18425.41;;;7.20;100.00
60583;BME280;46415;47.536;19.066;2024-03-07T05:59:07;-18425.41;;;7.20;100.00
60583;BME280;46415;47.536;19.066;2024-03-07T06:02:12;-18426.66;;;7.25;100.00
60583;BME280;46415;47.536;19.066;2024-03-07T06:05:18;-18427.19;;;7.27;100.00
60583;BME280;46415;47.536;19.066;2024-03-07T06:08:21;-18428.28;;;7.31;100.00
60583;BME280;46415;47.536;19.066;2024-03-07T06:11:25;-18428.28;;;7.31;100.00
60583;BME280;46415;47.536;19.066;2024-03-07T06:14:28;-18429.66;;;7.36;100.00
60583;BME280;46415;47.536;19.066;2024-03-07T06:17:31;-18432.53;;;7.47;100.00
60583;BME280;46415;47.536;19.066;2024-03-07T06:20:35;-18430.75;;;7.40;100.00
60583;BME280;46415;47.536;19.066;2024-03-07T06:23:38;-18433.66;;;7.51;100.00
60583;BME280;46415;47.536;19.066;2024-03-07T06:27:26;-18436.38;;;7.61;100.00
60583;BME280;46415;47.536;19.066;2024-03-07T06:30:30;-18438.44;;;7.68;100.00
60583;BME280;46415;47.536;19.066;2024-03-07T06:33:34;-18440.09;;;7.74;100.00
60583;BME280;46415;47.536;19.066;2024-03-07T06:36:37;-18439.53;;;7.72;100.00
60583;BME280;46415;47.536;19.066;2024-03-07T06:39:40;-18438.72;;;7.69;100.00
60583;BME280;46415;47.536;19.066;2024-03-07T06:42:43;-18441.59;;;7.80;100.00
60583;BME280;46415;47.536;19.066;2024-03-07T06:45:46;-18442.56;;;7.84;100.00
60583;BME280;46415;47.536;19.066;2024-03-07T06:48:49;-18438.44;;;7.68;100.00
60583;BME280;46415;47.536;19.066;2024-03-07T06:51:52;-18436.81;;;7.62;100.00
60583;BME280;46415;47.536;19.066;2024-03-07T06:54:59;-18436.81;;;7.62;100.00
60583;BME280;46415;47.536;19.066;2024-03-07T06:58:02;-18436.53;;;7.61;100.00
60583;BME280;46415;47.536;19.066;2024-03-07T07:01:08;-18441.19;;;7.78;100.00
60583;BME280;46415;47.536;19.066;2024-03-07T07:04:13;-18441.06;;;7.78;100.00
60583;BME280;46415;47.536;19.066;2024-03-07T07:07:17;-18444.75;;;7.92;100.00
60583;BME280;46415;47.536;19.066;2024-03-07T07:10:20;-18444.47;;;7.91;99.71
60583;BME280;46415;47.536;19.066;2024-03-07T07:13:27;-18445.03;;;7.93;98.71
60583;BME280;46415;47.536;19.066;2024-03-07T07:16:29;-18446.53;;;7.98;96.96
60583;BME280;46415;47.536;19.066;2024-03-07T07:19:34;-18444.75;;;7.92;96.67
60583;BME280;46415;47.536;19.066;2024-03-07T07:22:37;-18446.00;;;7.96;97.00
60583;BME280;46415;47.536;19.066;2024-03-07T07:25:41;-18444.75;;;7.92;98.44
60583;BME280;46415;47.536;19.066;2024-03-07T07:28:43;-18446.13;;;7.97;97.28
60583;BME280;46415;47.536;19.066;2024-03-07T07:31:46;-18447.38;;;8.01;97.03
60583;BME280;46415;47.536;19.066;2024-03-07T07:34:49;-18450.94;;;8.14;97.97
60583;BME280;46415;47.536;19.066;2024-03-07T07:37:52;-18456.84;;;8.36;96.58
60583;BME280;46415;47.536;19.066;2024-03-07T07:40:56;-18459.31;;;8.45;95.30
60583;BME280;46415;47.536;19.066;2024-03-07T07:44:00;-18460.13;;;8.48;95.45
60583;BME280;46415;47.536;19.066;2024-03-07T07:47:03;-18460.25;;;8.49;94.00
60583;BME280;46415;47.536;19.066;2024-03-07T07:50:11;-18455.75;;;8.32;93.35
60583;BME280;46415;47.536;19.066;2024-03-07T07:53:20;-18455.31;;;8.31;92.88
60583;BME280;46415;47.536;19.066;2024-03-07T07:56:23;-18455.31;;;8.31;93.33
60583;BME280;46415;47.536;19.066;2024-03-07T07:59:27;-18457.09;;;8.37;92.75
60583;BME280;46415;47.536;19.066;2024-03-07T08:02:30;-18461.50;;;8.53;92.65
60583;BME280;46415;47.536;19.066;2024-03-07T08:05:35;-18455.31;;;8.31;90.40
60583;BME280;46415;47.536;19.066;2024-03-07T08:08:38;-18457.09;;;8.37;90.19
60583;BME280;46415;47.536;19.066;2024-03-07T08:11:42;-18456.69;;;8.36;89.36
60583;BME280;46415;47.536;19.066;2024-03-07T08:14:45;-18456.00;;;8.33;91.16
60583;BME280;46415;47.536;19.066;2024-03-07T08:17:48;-18453.81;;;8.25;91.08
60583;BME280;46415;47.536;19.066;2024-03-07T08:20:52;-18454.09;;;8.26;90.70
60583;BME280;46415;47.536;19.066;2024-03-07T08:23:58;-18454.09;;;8.26;90.11
60583;BME280;46415;47.536;19.066;2024-03-07T08:27:01;-18456.00;;;8.33;90.09
60583;BME280;46415;47.536;19.066;2024-03-07T08:30:05;-18462.03;;;8.55;89.43
60583;BME280;46415;47.536;19.066;2024-03-07T08:33:09;-18464.25;;;8.64;88.83
60583;BME280;46415;47.536;19.066;2024-03-07T08:36:13;-18463.84;;;8.62;88.17
60583;BME280;46415;47.536;19.066;2024-03-07T08:39:16;-18468.78;;;8.80;88.22
60583;BME280;46415;47.536;19.066;2024-03-07T08:42:19;-18470.97;;;8.88;88.49
60583;BME280;46415;47.536;19.066;2024-03-07T08:45:22;-18467.94;;;8.77;86.73
60583;BME280;46415;47.536;19.066;2024-03-07T08:48:25;-18473.00;;;8.96;87.10
60583;BME280;46415;47.536;19.066;2024-03-07T08:51:29;-18474.53;;;9.01;85.54
60583;BME280;46415;47.536;19.066;2024-03-07T08:54:32;-18474.09;;;9.00;84.97
60583;BME280;46415;47.536;19.066;2024-03-07T08:57:36;-18468.63;;;8.80;84.97
60583;BME280;46415;47.536;19.066;2024-03-07T09:00:40;-18468.63;;;8.80;84.85
60583;BME280;46415;47.536;19.066;2024-03-07T09:03:42;-18462.03;;;8.55;85.01
60583;BME280;46415;47.536;19.066;2024-03-07T09:06:45;-18459.16;;;8.45;85.09
60583;BME280;46415;47.536;19.066;2024-03-07T09:09:49;-18456.28;;;8.34;84.82
60583;BME280;46415;47.536;19.066;2024-03-07T09:12:52;-18453.81;;;8.25;86.15
60583;BME280;46415;47.536;19.066;2024-03-07T09:15:57;-18449.69;;;8.10;88.05
60583;BME280;46415;47.536;19.066;2024-03-07T09:19:00;-18450.78;;;8.14;87.62
60583;BME280;46415;47.536;19.066;2024-03-07T09:22:03;-18451.63;;;8.17;86.78
60583;BME280;46415;47.536;19.066;2024-03-07T09:25:07;-18452.03;;;8.18;87.37
60583;BME280;46415;47.536;19.066;2024-03-07T09:28:10;-18453.13;;;8.23;88.51
60583;BME280;46415;47.536;19.066;2024-03-07T09:31:16;-18452.03;;;8.18;87.26
60583;BME280;46415;47.536;19.066;2024-03-07T09:34:20;-18453.00;;;8.22;86.72
60583;BME280;46415;47.536;19.066;2024-03-07T09:37:24;-18450.78;;;8.14;88.15
60583;BME280;46415;47.536;19.066;2024-03-07T09:40:27;-18450.78;;;8.14;87.56
60583;BME280;46415;47.536;19.066;2024-03-07T09:43:32;-18453.94;;;8.26;87.73
60583;BME280;46415;47.536;19.066;2024-03-07T09:46:36;-18457.38;;;8.38;86.13
60583;BME280;46415;47.536;19.066;2024-03-07T09:49:39;-18461.91;;;8.55;86.11
60583;BME280;46415;47.536;19.066;2024-03-07T09:52:43;-18461.50;;;8.53;85.52
60583;BME280;46415;47.536;19.066;2024-03-07T09:55:47;-18463.00;;;8.59;85.71
60583;BME280;46415;47.536;19.066;2024-03-07T09:58:51;-18464.25;;;8.64;84.94
60583;BME280;46415;47.536;19.066;2024-03-07T10:01:56;-18469.31;;;8.82;84.70
60583;BME280;46415;47.536;19.066;2024-03-07T10:05:00;-18470.81;;;8.88;82.96
60583;BME280;46415;47.536;19.066;2024-03-07T10:08:04;-18468.09;;;8.78;82.94
60583;BME280;46415;47.536;19.066;2024-03-07T10:11:07;-18465.47;;;8.68;84.60
60583;BME280;46415;47.536;19.066;2024-03-07T10:14:11;-18467.81;;;8.77;84.58
60583;BME280;46415;47.536;19.066;2024-03-07T10:17:14;-18472.34;;;8.93;84.47
60583;BME280;46415;47.536;19.066;2024-03-07T10:20:19;-18474.94;;;9.03;83.12
60583;BME280;46415;47.536;19.066;2024-03-07T10:23:25;-18477.13;;;9.11;83.93
60583;BME280;46415;47.536;19.066;2024-03-07T10:26:28;-18475.50;;;9.05;84.24
60583;BME280;46415;47.536;19.066;2024-03-07T10:29:32;-18474.81;;;9.02;83.02
60583;BME280;46415;47.536;19.066;2024-03-07T10:32:35;-18476.03;;;9.07;84.02
60583;BME280;46415;47.536;19.066;2024-03-07T10:35:40;-18475.22;;;9.04;84.08
60583;BME280;46415;47.536;19.066;2024-03-07T10:38:43;-18477.94;;;9.14;83.03
60583;BME280;46415;47.536;19.066;2024-03-07T10:41:48;-18474.09;;;9.00;84.16
60583;BME280;46415;47.536;19.066;2024-03-07T10:44:53;-18474.66;;;9.02;82.84
60583;BME280;46415;47.536;19.066;2024-03-07T10:48:00;-18479.47;;;9.20;82.12
60583;BME280;46415;47.536;19.066;2024-03-07T10:57:51;-18475.63;;;9.06;83.34
60583;BME280;46415;47.536;19.066;2024-03-07T11:01:01;-18473.16;;;8.96;81.29
60583;BME280;46415;47.536;19.066;2024-03-07T11:04:07;-18473.97;;;8.99;82.93
60583;BME280;46415;47.536;19.066;2024-03-07T11:07:10;-18472.06;;;8.92;83.42
60583;BME280;46415;47.536;19.066;2024-03-07T11:10:13;-18470.28;;;8.86;82.93
60583;BME280;46415;47.536;19.066;2024-03-07T11:13:20;-18471.66;;;8.91;83.83
60583;BME280;46415;47.536;19.066;2024-03-07T11:16:23;-18468.91;;;8.81;84.28
60583;BME280;46415;47.536;19.066;2024-03-07T11:19:27;-18470.28;;;8.86;84.08
60583;BME280;46415;47.536;19.066;2024-03-07T11:22:31;-18469.87;;;8.84;84.24
60583;BME280;46415;47.536;19.066;2024-03-07T11:25:37;-18469.44;;;8.83;84.72
60583;BME280;46415;47.536;19.066;2024-03-07T11:28:41;-18472.59;;;8.94;85.03
60583;BME280;46415;47.536;19.066;2024-03-07T11:31:45;-18474.94;;;9.03;83.45
60583;BME280;46415;47.536;19.066;2024-03-07T11:34:49;-18471.38;;;8.90;83.23
60583;BME280;46415;47.536;19.066;2024-03-07T11:37:57;-18469.72;;;8.84;83.84
60583;BME280;46415;47.536;19.066;2024-03-07T11:41:01;-18470.28;;;8.86;84.65
60583;BME280;46415;47.536;19.066;2024-03-07T11:44:08;-18473.00;;;8.96;85.60
60583;BME280;46415;47.536;19.066;2024-03-07T11:47:14;-18476.03;;;9.07;83.08
60583;BME280;46415;47.536;19.066;2024-03-07T11:50:19;-18476.84;;;9.10;83.09
60583;BME280;46415;47.536;19.066;2024-03-07T11:53:22;-18476.03;;;9.07;84.93
60583;BME280;46415;47.536;19.066;2024-03-07T11:56:25;-18476.03;;;9.07;83.43
60583;BME280;46415;47.536;19.066;2024-03-07T11:59:28;-18478.22;;;9.15;82.93
60583;BME280;46415;47.536;19.066;2024-03-07T12:02:40;-18479.19;;;9.19;83.40
60583;BME280;46415;47.536;19.066;2024-03-07T12:05:45;-18481.66;;;9.28;82.16
60583;BME280;46415;47.536;19.066;2024-03-07T12:08:48;-18477.00;;;9.11;82.97
60583;BME280;46415;47.536;19.066;2024-03-07T12:11:52;-18480.41;;;9.23;81.92
60583;BME280;46415;47.536;19.066;2024-03-07T12:14:56;-18482.34;;;9.30;81.92
60583;BME280;46415;47.536;19.066;2024-03-07T12:18:01;-18480.81;;;9.25;82.45
60583;BME280;46415;47.536;19.066;2024-03-07T12:21:04;-18482.47;;;9.31;82.15
60583;BME280;46415;47.536;19.066;2024-03-07T12:24:12;-18481.25;;;9.26;82.17
60583;BME280;46415;47.536;19.066;2024-03-07T12:27:16;-18480.97;;;9.25;83.42
60583;BME280;46415;47.536;19.066;2024-03-07T12:30:19;-18485.09;;;9.40;81.94
60583;BME280;46415;47.536;19.066;2024-03-07T12:33:24;-18484.81;;;9.39;82.29
60583;BME280;46415;47.536;19.066;2024-03-07T12:36:31;-18480.28;;;9.23;83.01
60583;BME280;46415;47.536;19.066;2024-03-07T12:39:37;-18481.50;;;9.27;84.51
60583;BME280;46415;47.536;19.066;2024-03-07T12:42:51;-18483.72;;;9.35;83.30
60583;BME280;46415;47.536;19.066;2024-03-07T12:45:57;-18477.69;;;9.13;85.43
60583;BME280;46415;47.536;19.066;2024-03-07T12:49:01;-18477.94;;;9.14;85.19
60583;BME280;46415;47.536;19.066;2024-03-07T12:52:05;-18473.16;;;8.96;86.60
60583;BME280;46415;47.536;19.066;2024-03-07T12:55:11;-18479.19;;;9.19;86.21
60583;BME280;46415;47.536;19.066;2024-03-07T12:58:16;-18484.25;;;9.37;86.18
60583;BME280;46415;47.536;19.066;2024-03-07T13:01:20;-18487.41;;;9.49;85.50
60583;BME280;46415;47.536;19.066;2024-03-07T13:04:23;-18479.47;;;9.20;85.93
60583;BME280;46415;47.536;19.066;2024-03-07T13:07:30;-18481.50;;;9.27;86.84
60583;BME280;46415;47.536;19.066;2024-03-07T13:10:33;-18482.75;;;9.32;86.47
60583;BME280;46415;47.536;19.066;2024-03-07T13:13:37;-18478.50;;;9.16;85.89
60583;BME280;46415;47.536;19.066;2024-03-07T13:16:40;-18475.75;;;9.06;87.07
60583;BME280;46415;47.536;19.066;2024-03-07T13:19:45;-18474.38;;;9.01;87.46
60583;BME280;46415;47.536;19.066;2024-03-07T13:22:52;-18473.00;;;8.96;88.06
60583;BME280;46415;47.536;19.066;2024-03-07T13:25:56;-18471.09;;;8.89;88.83
60583;BME280;46415;47.536;19.066;2024-03-07T13:28:59;-18474.94;;;9.03;89.15
60583;BME280;46415;47.536;19.066;2024-03-07T13:32:04;-18475.06;;;9.04;89.09
60583;BME280;46415;47.536;19.066;2024-03-07T13:35:07;-18472.75;;;8.95;88.87
60583;BME280;46415;47.536;19.066;2024-03-07T13:38:14;-18471.91;;;8.92;89.61
60583;BME280;46415;47.536;19.066;2024-03-07T13:41:21;-18475.34;;;9.05;90.44
60583;BME280;46415;47.536;19.066;2024-03-07T13:44:25;-18475.34;;;9.05;89.61
60583;BME280;46415;47.536;19.066;2024-03-07T13:47:32;-18469.72;;;8.84;92.04
60583;BME280;46415;47.536;19.066;2024-03-07T13:50:36;-18469.59;;;8.83;91.16
60583;BME280;46415;47.536;19.066;2024-03-07T13:53:58;-18472.47;;;8.94;90.63
60583;BME280;46415;47.536;19.066;2024-03-07T14:00:45;-18469.72;;;8.84;92.62
60583;BME280;46415;47.536;19.066;2024-03-07T14:11:01;-18465.75;;;8.69;92.94
60583;BME280;46415;47.536;19.066;2024-03-07T14:17:51;-18466.44;;;8.72;94.05
60583;BME280;46415;47.536;19.066;2024-03-07T14:28:26;-18458.06;;;8.41;96.80
60583;BME280;46415;47.536;19.066;2024-03-07T14:31:32;-18457.94;;;8.40;100.00
60583;BME280;46415;47.536;19.066;2024-03-07T14:38:28;-18457.94;;;8.40;99.02
60583;BME280;46415;47.536;19.066;2024-03-07T14:41:54;-18460.41;;;8.49;98.39
60583;BME280;46415;47.536;19.066;2024-03-07T14:44:58;-18457.09;;;8.37;100.00
60583;BME280;46415;47.536;19.066;2024-03-07T14:48:00;-18448.47;;;8.05;100.00
60583;BME280;46415;47.536;19.066;2024-03-07T14:51:04;-18444.47;;;7.91;100.00
60583;BME280;46415;47.536;19.066;2024-03-07T14:54:09;-18434.75;;;7.55;100.00
60583;BME280;46415;47.536;19.066;2024-03-07T14:57:13;-18429.66;;;7.36;100.00
60583;BME280;46415;47.536;19.066;2024-03-07T15:00:16;-18427.88;;;7.29;100.00
60583;BME280;46415;47.536;19.066;2024-03-07T15:03:35;-18426.91;;;7.26;100.00
60583;BME280;46415;47.536;19.066;2024-03-07T15:06:41;-18426.22;;;7.23;100.00
60583;BME280;46415;47.536;19.066;2024-03-07T15:09:45;-18426.91;;;7.26;100.00
60583;BME280;46415;47.536;19.066;2024-03-07T15:12:48;-18424.59;;;7.17;100.00
60583;BME280;46415;47.536;19.066;2024-03-07T15:15:51;-18425.41;;;7.20;100.00
60583;BME280;46415;47.536;19.066;2024-03-07T15:18:54;-18425.13;;;7.19;100.00
60583;BME280;46415;47.536;19.066;2024-03-07T15:21:57;-18427.19;;;7.27;100.00
60583;BME280;46415;47.536;19.066;2024-03-07T15:24:59;-18427.47;;;7.28;100.00
60583;BME280;46415;47.536;19.066;2024-03-07T15:28:05;-18429.66;;;7.36;100.00
60583;BME280;46415;47.536;19.066;2024-03-07T15:31:07;-18432.00;;;7.45;100.00
60583;BME280;46415;47.536;19.066;2024-03-07T15:34:16;-18431.59;;;7.43;100.00
60583;BME280;46415;47.536;19.066;2024-03-07T15:37:19;-18430.47;;;7.39;100.00
60583;BME280;46415;47.536;19.066;2024-03-07T15:40:26;-18428.28;;;7.31;100.00
60583;BME280;46415;47.536;19.066;2024-03-07T15:43:30;-18423.34;;;7.13;100.00
60583;BME280;46415;47.536;19.066;2024-03-07T15:46:33;-18423.63;;;7.14;100.00
60583;BME280;46415;47.536;19.066;2024-03-07T15:49:37;-18421.16;;;7.05;100.00
60583;BME280;46415;47.536;19.066;2024-03-07T15:52:41;-18422.38;;;7.09;100.00
60583;BME280;46415;47.536;19.066;2024-03-07T15:55:44;-18419.78;;;7.00;100.00
60583;BME280;46415;47.536;19.066;2024-03-07T15:58:47;-18416.75;;;6.88;100.00
60583;BME280;46415;47.536;19.066;2024-03-07T16:01:50;-18415.81;;;6.85;100.00
60583;BME280;46415;47.536;19.066;2024-03-07T16:04:53;-18417.31;;;6.90;100.00
60583;BME280;46415;47.536;19.066;2024-03-07T16:08:00;-18414.56;;;6.80;100.00
60583;BME280;46415;47.536;19.066;2024-03-07T16:11:03;-18412.38;;;6.72;100.00
60583;BME280;46415;47.536;19.066;2024-03-07T16:14:06;-18412.63;;;6.73;100.00
60583;BME280;46415;47.536;19.066;2024-03-07T16:17:09;-18409.63;;;6.62;100.00
60583;BME280;46415;47.536;19.066;2024-03-07T16:20:12;-18406.59;;;6.51;100.00
60583;BME280;46415;47.536;19.066;2024-03-07T16:23:16;-18402.88;;;6.37;100.00
60583;BME280;46415;47.536;19.066;2024-03-07T16:26:19;-18400.28;;;6.28;100.00
60583;BME280;46415;47.536;19.066;2024-03-07T16:29:23;-18402.19;;;6.35;100.00